Terminal Aerodrome Forecast
Issued by NWS

Home | Current Version | Previous Version | Text Only | Print | Product List | Glossary Off
Versions: 1 2 3 4 5 6 7 8 9 10 11 12 13 14 15 16 17 18

473
FTUS41 KCLE 042337
TAFFDY
TAF
KFDY 042337Z 0500/0524 26010KT P6SM OVC025
      TEMPO 0500/0504 OVC035
     FM050400 27009KT P6SM SCT025
     FM051200 24005KT P6SM BKN050=

USA.gov is the U.S. government's official web portal to all federal, state and local government web resources and services.